createdAt,value
2023-02-11T00:01:30.523Z,30.00
2023-02-11T00:03:58.728Z,31.25
2023-02-11T00:06:28.073Z,27.27
2023-02-11T00:08:56.263Z,24.88
2023-02-11T00:11:26.407Z,27.98
2023-02-11T00:13:53.451Z,26.63
2023-02-11T00:16:21.058Z,27.38
2023-02-11T00:18:48.758Z,27.00
2023-02-11T00:21:21.888Z,25.88
2023-02-11T00:23:49.163Z,26.05
2023-02-11T00:26:27.649Z,26.98
2023-02-11T00:28:54.735Z,27.88
2023-02-11T00:31:25.302Z,27.42
2023-02-11T00:33:53.189Z,25.95
2023-02-11T00:36:25.662Z,25.45
2023-02-11T00:41:21.736Z,25.00
2023-02-11T00:43:49.539Z,23.55
2023-02-11T00:46:19.212Z,25.38
2023-02-11T00:48:46.228Z,25.25
2023-02-11T00:51:13.344Z,25.58
2023-02-11T00:53:40.582Z,25.98
2023-02-11T00:56:08.057Z,24.73
2023-02-11T00:58:35.884Z,24.80
2023-02-11T01:01:04.792Z,24.42
2023-02-11T01:03:32.003Z,26.02
2023-02-11T01:05:59.358Z,25.55
2023-02-11T01:08:26.705Z,25.70
2023-02-11T01:10:58.956Z,26.77
2023-02-11T01:13:27.062Z,23.92
2023-02-11T01:15:54.978Z,25.33
2023-02-11T01:18:22.033Z,25.35
2023-02-11T01:20:51.713Z,25.60
2023-02-11T01:23:19.161Z,26.50
2023-02-11T01:25:46.995Z,25.45
2023-02-11T01:28:26.002Z,25.17
2023-02-11T01:30:53.945Z,26.25
2023-02-11T01:33:22.187Z,24.35
2023-02-11T01:35:50.268Z,23.45
2023-02-11T01:38:23.402Z,25.33
2023-02-11T01:41:00.621Z,26.80
2023-02-11T01:43:37.998Z,28.00
2023-02-11T01:46:23.321Z,25.13
2023-02-11T01:49:04.858Z,21.33
2023-02-11T01:52:00.574Z,24.27
2023-02-11T01:54:51.266Z,23.52
2023-02-11T01:57:22.004Z,22.63
2023-02-11T01:59:55.366Z,22.02
2023-02-11T02:02:30.178Z,23.10
2023-02-11T02:05:08.788Z,23.90
2023-02-11T02:07:52.401Z,24.23
2023-02-11T02:10:22.981Z,24.80
2023-02-11T02:12:49.995Z,23.02
2023-02-11T02:15:25.715Z,23.05
2023-02-11T02:18:18.792Z,23.23
2023-02-11T02:21:10.023Z,27.75
2023-02-11T02:24:00.516Z,22.88
2023-02-11T02:26:50.208Z,21.92
2023-02-11T02:29:31.292Z,22.70
2023-02-11T02:32:13.278Z,22.92
2023-02-11T02:35:11.691Z,23.10
2023-02-11T02:38:10.671Z,22.88
2023-02-11T02:41:03.231Z,25.05
2023-02-11T02:43:31.217Z,23.90
2023-02-11T02:46:11.259Z,24.10
2023-02-11T02:48:38.422Z,25.77
2023-02-11T02:51:32.866Z,23.50
2023-02-11T02:54:05.616Z,22.55
2023-02-11T02:57:03.373Z,21.42
2023-02-11T03:00:00.677Z,21.42
2023-02-11T03:02:41.263Z,21.52
2023-02-11T03:05:38.734Z,21.02
2023-02-11T03:08:45.854Z,22.23
2023-02-11T03:11:17.100Z,21.67
2023-02-11T03:13:46.384Z,22.70
2023-02-11T03:16:38.945Z,20.92
2023-02-11T03:19:16.197Z,21.80
2023-02-11T03:21:45.131Z,21.27
2023-02-11T03:24:25.879Z,22.35
2023-02-11T03:26:58.184Z,22.65
2023-02-11T03:29:39.212Z,25.27
2023-02-11T03:32:18.005Z,22.88
2023-02-11T03:34:57.275Z,23.83
2023-02-11T03:37:31.611Z,23.38
2023-02-11T03:40:11.848Z,22.85
2023-02-11T03:42:45.073Z,24.08
2023-02-11T03:45:16.834Z,25.70
2023-02-11T03:47:55.563Z,26.70
2023-02-11T03:50:24.037Z,23.40
2023-02-11T03:52:51.767Z,24.40
2023-02-11T03:55:21.079Z,22.55
2023-02-11T03:57:48.661Z,24.05
2023-02-11T04:00:15.836Z,22.25
2023-02-11T04:02:43.596Z,22.98
2023-02-11T04:05:14.182Z,23.85
2023-02-11T04:07:41.207Z,22.75
2023-02-11T04:10:08.553Z,23.25
2023-02-11T04:12:35.555Z,23.65
2023-02-11T04:15:02.668Z,25.38
2023-02-11T04:17:29.675Z,23.63
2023-02-11T04:19:56.695Z,23.00
2023-02-11T04:22:23.747Z,23.50
2023-02-11T04:24:50.741Z,24.77
2023-02-11T04:27:17.826Z,22.90
2023-02-11T04:29:44.869Z,23.80
2023-02-11T04:32:12.399Z,24.33
2023-02-11T04:34:39.571Z,24.27
2023-02-11T04:37:07.008Z,23.33
2023-02-11T04:39:34.732Z,23.15
2023-02-11T04:42:01.705Z,23.08
2023-02-11T04:44:28.900Z,23.38
2023-02-11T04:46:55.978Z,19.75
2023-02-11T04:49:23.011Z,23.00
2023-02-11T04:51:50.234Z,20.88
2023-02-11T04:54:19.116Z,21.52
2023-02-11T04:56:46.130Z,22.75
2023-02-11T04:59:13.569Z,21.70
2023-02-11T05:01:40.884Z,22.60
2023-02-11T05:04:07.980Z,22.45
2023-02-11T05:06:35.100Z,22.70
2023-02-11T05:09:02.477Z,23.40
2023-02-11T05:11:29.513Z,21.92
2023-02-11T05:13:56.531Z,21.92
2023-02-11T05:16:23.762Z,21.92
2023-02-11T05:18:52.529Z,21.90
2023-02-11T05:21:20.003Z,21.27
2023-02-11T05:23:47.715Z,22.98
2023-02-11T05:26:14.765Z,21.80
2023-02-11T05:28:42.542Z,22.67
2023-02-11T05:31:10.681Z,21.95
2023-02-11T05:33:38.015Z,23.58
2023-02-11T05:36:08.372Z,22.77
2023-02-11T05:38:36.318Z,22.08
2023-02-11T05:41:04.180Z,23.67
2023-02-11T05:43:32.089Z,21.92
2023-02-11T05:45:59.193Z,23.02
2023-02-11T05:48:26.245Z,23.50
2023-02-11T05:50:53.262Z,23.80
2023-02-11T05:53:20.325Z,22.73
2023-02-11T05:55:47.373Z,23.38
2023-02-11T05:58:14.366Z,22.95
2023-02-11T06:00:41.483Z,21.50
2023-02-11T06:03:08.598Z,22.30
2023-02-11T06:05:35.655Z,24.00
2023-02-11T06:08:02.953Z,22.15
2023-02-11T06:10:30.224Z,22.48
2023-02-11T06:12:57.182Z,24.13
2023-02-11T06:15:24.270Z,24.13
2023-02-11T06:17:51.535Z,23.85
2023-02-11T06:20:19.186Z,22.63
2023-02-11T06:22:46.627Z,23.65
2023-02-11T06:25:14.898Z,22.85
2023-02-11T06:27:41.909Z,23.17
2023-02-11T06:30:09.776Z,21.88
2023-02-11T06:32:44.596Z,24.63
2023-02-11T06:35:13.653Z,20.60
2023-02-11T06:37:42.197Z,23.13
2023-02-11T06:40:11.155Z,22.63
2023-02-11T06:42:39.111Z,24.10
2023-02-11T06:45:09.498Z,22.02
2023-02-11T06:47:37.494Z,22.48
2023-02-11T06:50:06.024Z,22.55
2023-02-11T06:52:33.884Z,21.27
2023-02-11T06:55:00.937Z,24.55
2023-02-11T06:57:28.036Z,23.83
2023-02-11T06:59:55.578Z,23.13
2023-02-11T07:02:22.571Z,21.65
2023-02-11T07:04:49.628Z,22.67
2023-02-11T07:07:16.654Z,21.63
2023-02-11T07:09:44.014Z,23.00
2023-02-11T07:12:13.429Z,21.80
2023-02-11T07:14:40.672Z,22.98
2023-02-11T07:17:07.667Z,22.85
2023-02-11T07:19:34.634Z,25.45
2023-02-11T07:22:02.317Z,22.63
2023-02-11T07:24:29.322Z,25.05
2023-02-11T07:26:56.337Z,22.40
2023-02-11T07:29:23.553Z,25.80
2023-02-11T07:31:50.611Z,23.23
2023-02-11T07:34:17.843Z,23.80
2023-02-11T07:36:45.088Z,23.88
2023-02-11T07:39:12.392Z,24.30
2023-02-11T07:41:39.444Z,25.10
2023-02-11T07:44:06.830Z,24.48
2023-02-11T07:46:35.580Z,25.20
2023-02-11T07:49:02.755Z,25.92
2023-02-11T07:51:31.076Z,25.67
2023-02-11T07:53:59.735Z,24.10
2023-02-11T07:56:28.506Z,25.58
2023-02-11T07:58:56.845Z,24.98
2023-02-11T08:01:27.095Z,23.05
2023-02-11T08:03:58.080Z,25.27
2023-02-11T08:06:27.408Z,22.63
2023-02-11T08:08:54.975Z,25.98
2023-02-11T08:11:25.470Z,23.77
2023-02-11T08:13:53.528Z,25.60
2023-02-11T08:16:29.765Z,24.88
2023-02-11T08:18:58.868Z,24.02
2023-02-11T08:21:26.380Z,24.75
2023-02-11T08:23:55.095Z,25.40
2023-02-11T08:26:25.461Z,23.13
2023-02-11T08:28:53.983Z,23.23
2023-02-11T08:31:22.347Z,23.52
2023-02-11T08:33:50.339Z,21.95
2023-02-11T08:36:32.111Z,22.75
2023-02-11T08:39:17.573Z,23.73
2023-02-11T08:41:48.650Z,22.65
2023-02-11T08:44:21.378Z,21.50
2023-02-11T08:46:50.701Z,22.05
2023-02-11T08:49:17.765Z,22.50
2023-02-11T08:51:45.243Z,22.42
2023-02-11T08:54:13.305Z,22.50
2023-02-11T08:56:40.611Z,21.77
2023-02-11T08:59:09.182Z,22.40
2023-02-11T09:01:36.430Z,19.25
2023-02-11T09:04:03.552Z,19.52
2023-02-11T09:06:30.600Z,19.58
2023-02-11T09:08:58.219Z,19.38
2023-02-11T09:11:29.258Z,19.65
2023-02-11T09:13:56.363Z,19.75
2023-02-11T09:16:26.210Z,19.33
2023-02-11T09:18:55.701Z,20.17
2023-02-11T09:21:22.821Z,18.88
2023-02-11T09:23:49.891Z,19.75
2023-02-11T09:26:23.340Z,19.55
2023-02-11T09:28:51.430Z,19.35
2023-02-11T09:31:21.423Z,18.48
2023-02-11T09:33:51.204Z,18.98
2023-02-11T09:36:24.672Z,19.80
2023-02-11T09:38:52.710Z,19.52
2023-02-11T09:41:43.238Z,21.17
2023-02-11T09:44:20.008Z,19.80
2023-02-11T09:46:54.910Z,19.55
2023-02-11T09:49:31.272Z,20.90
2023-02-11T09:52:24.415Z,20.48
2023-02-11T09:55:00.431Z,21.08
2023-02-11T09:57:33.657Z,19.90
2023-02-11T10:00:02.134Z,19.70
2023-02-11T10:03:06.984Z,20.20
2023-02-11T10:06:01.482Z,19.13
2023-02-11T10:08:33.121Z,18.88
2023-02-11T10:11:31.207Z,18.73
2023-02-11T10:14:19.590Z,19.58
2023-02-11T10:17:09.954Z,18.77
2023-02-11T10:19:55.300Z,20.42
2023-02-11T10:22:30.826Z,20.08
2023-02-11T10:25:00.316Z,21.05
2023-02-11T10:27:36.041Z,20.80
2023-02-11T10:30:19.144Z,18.83
2023-02-11T10:33:16.843Z,21.95
2023-02-11T10:35:43.905Z,19.73
2023-02-11T10:38:11.465Z,18.27
2023-02-11T10:40:38.597Z,18.23
2023-02-11T10:43:11.917Z,18.27
2023-02-11T10:45:45.909Z,19.35
2023-02-11T10:48:40.850Z,18.38
2023-02-11T10:51:21.200Z,19.27
2023-02-11T10:54:04.948Z,20.35
2023-02-11T10:56:37.909Z,19.55
2023-02-11T10:59:14.271Z,17.25
2023-02-11T11:01:49.060Z,19.08
2023-02-11T11:04:34.120Z,18.85
2023-02-11T11:07:20.461Z,18.15
2023-02-11T11:10:06.749Z,19.13
2023-02-11T11:12:46.473Z,18.02
2023-02-11T11:15:18.715Z,19.17
2023-02-11T11:17:46.331Z,18.73
2023-02-11T11:20:16.401Z,18.02
2023-02-11T11:22:44.047Z,19.67
2023-02-11T11:25:26.734Z,18.58
2023-02-11T11:27:57.126Z,17.50
2023-02-11T11:30:31.612Z,20.52
2023-02-11T11:32:59.416Z,18.92
2023-02-11T11:35:32.936Z,18.23
2023-02-11T11:38:03.327Z,19.35
2023-02-11T11:40:33.193Z,20.50
2023-02-11T11:43:12.445Z,19.88
2023-02-11T11:45:51.959Z,20.33
2023-02-11T11:48:34.208Z,20.90
2023-02-11T11:51:09.529Z,22.75
2023-02-11T11:53:54.752Z,20.77
2023-02-11T11:56:24.338Z,21.98
2023-02-11T11:58:51.574Z,21.13
2023-02-11T12:02:01.957Z,21.02
2023-02-11T12:04:47.423Z,21.25
2023-02-11T12:07:34.515Z,23.35
2023-02-11T12:10:40.027Z,22.65
2023-02-11T12:13:40.205Z,23.98
2023-02-11T12:16:13.858Z,22.25
2023-02-11T12:19:02.994Z,23.02
2023-02-11T12:21:55.952Z,22.60
2023-02-11T12:27:10.420Z,22.23
2023-02-11T12:30:10.433Z,24.55
2023-02-11T12:33:04.759Z,24.45
2023-02-11T12:35:46.799Z,23.50
2023-02-11T12:38:25.677Z,23.30
2023-02-11T12:41:10.273Z,23.13
2023-02-11T12:43:39.651Z,23.52
2023-02-11T12:46:25.764Z,24.98
2023-02-11T12:49:19.323Z,24.58
2023-02-11T12:52:08.424Z,26.35
2023-02-11T12:54:43.612Z,23.42
2023-02-11T12:57:26.482Z,26.55
2023-02-11T13:00:04.158Z,26.83
2023-02-11T13:02:58.080Z,24.83
2023-02-11T13:05:40.431Z,29.05
2023-02-11T13:08:16.190Z,25.85
2023-02-11T13:10:47.814Z,27.08
2023-02-11T13:13:50.410Z,25.65
2023-02-11T13:16:58.277Z,25.30
2023-02-11T13:19:38.856Z,26.95
2023-02-11T13:22:31.991Z,27.63
2023-02-11T13:27:43.656Z,25.95
2023-02-11T13:30:33.121Z,29.23
2023-02-11T13:33:03.230Z,29.15
2023-02-11T13:35:39.932Z,27.25
2023-02-11T13:38:25.066Z,27.25
2023-02-11T13:41:07.186Z,28.52
2023-02-11T13:43:36.277Z,29.08
2023-02-11T13:46:10.144Z,28.75
2023-02-11T13:48:45.545Z,28.20
2023-02-11T13:51:15.877Z,29.15
2023-02-11T13:53:53.229Z,31.48
2023-02-11T13:56:34.420Z,30.92
2023-02-11T13:59:05.366Z,30.13
2023-02-11T14:02:12.247Z,29.33
2023-02-11T14:05:22.688Z,29.48
2023-02-11T14:08:32.442Z,29.23
2023-02-11T14:11:08.333Z,30.88
2023-02-11T14:13:47.390Z,29.63
2023-02-11T14:16:37.059Z,29.85
2023-02-11T14:19:06.034Z,29.65
2023-02-11T14:21:37.471Z,30.20
2023-02-11T14:24:04.912Z,31.98
2023-02-11T14:27:07.798Z,32.35
2023-02-11T14:29:44.089Z,31.17
2023-02-11T14:32:26.388Z,29.92
2023-02-11T14:34:59.204Z,30.67
2023-02-11T14:38:05.107Z,29.92
2023-02-11T14:40:47.606Z,33.92
2023-02-11T14:43:27.810Z,31.35
2023-02-11T14:45:58.552Z,31.58
2023-02-11T14:48:36.744Z,32.22
2023-02-11T14:51:13.809Z,31.73
2023-02-11T14:53:46.366Z,33.42
2023-02-11T14:58:49.559Z,29.77
2023-02-11T15:01:37.888Z,31.52
2023-02-11T15:04:21.171Z,30.33
2023-02-11T15:06:52.024Z,31.17
2023-02-11T15:09:48.041Z,33.30
2023-02-11T15:12:27.746Z,32.25
2023-02-11T15:14:58.414Z,32.63
2023-02-11T15:17:31.819Z,31.67
2023-02-11T15:20:01.713Z,29.42
2023-02-11T15:22:36.880Z,29.98
2023-02-11T15:25:06.763Z,30.65
2023-02-11T15:27:41.864Z,31.08
2023-02-11T15:30:21.136Z,30.48
2023-02-11T15:32:58.000Z,31.25
2023-02-11T15:35:34.914Z,32.45
2023-02-11T15:38:02.508Z,30.90
2023-02-11T15:40:32.992Z,29.88
2023-02-11T15:43:03.208Z,29.70
2023-02-11T15:45:33.754Z,31.27
2023-02-11T15:48:14.570Z,30.77
2023-02-11T15:50:42.809Z,30.65
2023-02-11T15:53:27.601Z,30.70
2023-02-11T15:56:00.772Z,29.70
2023-02-11T15:58:27.898Z,31.50
2023-02-11T16:00:59.563Z,31.35
2023-02-11T16:03:32.430Z,30.60
2023-02-11T16:06:25.597Z,31.80
2023-02-11T16:09:16.687Z,29.83
2023-02-11T16:11:47.141Z,35.38
2023-02-11T16:14:33.964Z,31.33
2023-02-11T16:17:07.129Z,33.33
2023-02-11T16:19:35.517Z,31.77
2023-02-11T16:22:09.225Z,34.20
2023-02-11T16:24:39.113Z,34.50
2023-02-11T16:27:22.993Z,34.22
2023-02-11T16:29:51.134Z,36.63
2023-02-11T16:32:23.673Z,35.35
2023-02-11T16:37:18.179Z,35.55
2023-02-11T16:39:45.991Z,36.35
2023-02-11T16:42:13.327Z,32.55
2023-02-11T16:44:40.395Z,33.10
2023-02-11T16:47:17.194Z,32.88
2023-02-11T16:49:44.238Z,32.50
2023-02-11T16:52:15.886Z,34.95
2023-02-11T16:54:42.944Z,36.53
2023-02-11T16:57:18.689Z,34.17
2023-02-11T16:59:46.095Z,36.10
2023-02-11T17:02:22.878Z,33.25
2023-02-11T17:04:53.697Z,34.63
2023-02-11T17:07:21.349Z,34.55
2023-02-11T17:09:48.352Z,35.72
2023-02-11T17:12:15.379Z,33.95
2023-02-11T17:14:42.349Z,33.97
2023-02-11T17:17:10.490Z,35.28
2023-02-11T17:19:38.321Z,35.65
2023-02-11T17:22:05.830Z,35.53
2023-02-11T17:24:33.127Z,37.17
2023-02-11T17:27:00.129Z,36.28
2023-02-11T17:29:27.160Z,33.17
2023-02-11T17:31:54.718Z,34.45
2023-02-11T17:34:22.328Z,33.22
2023-02-11T17:36:49.949Z,33.67
2023-02-11T17:39:19.202Z,32.70
2023-02-11T17:41:46.347Z,35.50
2023-02-11T17:44:14.000Z,32.40
2023-02-11T17:46:41.015Z,31.67
2023-02-11T17:49:08.197Z,32.58
2023-02-11T17:51:37.771Z,31.55
2023-02-11T17:54:14.279Z,32.67
2023-02-11T17:56:42.041Z,32.83
2023-02-11T17:59:10.508Z,33.65
2023-02-11T18:01:38.623Z,34.72
2023-02-11T18:04:06.889Z,35.22
2023-02-11T18:06:34.152Z,37.42
2023-02-11T18:09:04.094Z,36.35
2023-02-11T18:11:33.042Z,36.58
2023-02-11T18:14:01.873Z,34.65
2023-02-11T18:16:29.922Z,33.55
2023-02-11T18:18:58.453Z,35.40
2023-02-11T18:21:25.887Z,35.63
2023-02-11T18:23:53.172Z,33.67
2023-02-11T18:26:21.222Z,36.05
2023-02-11T18:28:48.260Z,35.30
2023-02-11T18:31:15.556Z,35.50
2023-02-11T18:33:43.380Z,34.92
2023-02-11T18:36:13.806Z,35.35
2023-02-11T18:38:44.020Z,37.85
2023-02-11T18:41:11.832Z,38.15
2023-02-11T18:43:39.925Z,39.33
2023-02-11T18:46:09.695Z,38.70
2023-02-11T18:48:38.154Z,37.05
2023-02-11T18:51:14.630Z,34.67
2023-02-11T18:53:43.003Z,35.88
2023-02-11T18:56:21.669Z,37.60
2023-02-11T18:58:49.310Z,41.30
2023-02-11T19:01:24.306Z,38.97
2023-02-11T19:03:52.511Z,38.67
2023-02-11T19:06:27.880Z,40.95
2023-02-11T19:08:59.531Z,41.97
2023-02-11T19:11:47.625Z,44.03
2023-02-11T19:14:23.239Z,42.95
2023-02-11T19:16:52.785Z,39.35
2023-02-11T19:19:24.066Z,42.38
2023-02-11T19:21:51.351Z,40.13
2023-02-11T19:24:20.255Z,41.05
2023-02-11T19:26:48.726Z,45.10
2023-02-11T19:29:16.525Z,43.15
2023-02-11T19:31:44.522Z,41.95
2023-02-11T19:34:14.005Z,43.67
2023-02-11T19:36:41.477Z,45.08
2023-02-11T19:39:09.155Z,45.60
2023-02-11T19:41:36.362Z,44.15
2023-02-11T19:44:05.403Z,45.95
2023-02-11T19:46:36.289Z,44.33
2023-02-11T19:49:04.722Z,44.13
2023-02-11T19:51:33.700Z,44.70
2023-02-11T19:54:00.810Z,40.83
2023-02-11T19:56:30.985Z,40.03
2023-02-11T19:58:58.296Z,39.47
2023-02-11T20:01:25.951Z,42.25
2023-02-11T20:03:55.288Z,39.90
2023-02-11T20:06:25.051Z,40.22
2023-02-11T20:09:07.234Z,39.17
2023-02-11T20:11:35.202Z,40.60
2023-02-11T20:14:02.843Z,40.10
2023-02-11T20:16:46.978Z,40.90
2023-02-11T20:19:17.827Z,40.78
2023-02-11T20:21:48.036Z,39.92
2023-02-11T20:24:19.334Z,40.28
2023-02-11T20:26:48.304Z,37.95
2023-02-11T20:29:17.061Z,39.05
2023-02-11T20:31:44.406Z,43.95
2023-02-11T20:34:12.657Z,37.40
2023-02-11T20:36:40.508Z,40.55
2023-02-11T20:39:07.971Z,43.55
2023-02-11T20:41:39.584Z,42.28
2023-02-11T20:44:09.902Z,43.67
2023-02-11T20:46:39.976Z,43.47
2023-02-11T20:49:08.559Z,40.30
2023-02-11T20:51:37.179Z,43.55
2023-02-11T20:54:06.284Z,45.17
2023-02-11T20:56:36.682Z,43.50
2023-02-11T20:59:05.013Z,46.10
2023-02-11T21:01:38.109Z,42.53
2023-02-11T21:04:08.175Z,44.80
2023-02-11T21:06:40.814Z,43.38
2023-02-11T21:11:36.098Z,43.85
2023-02-11T21:14:03.560Z,44.75
2023-02-11T21:16:31.556Z,45.38
2023-02-11T21:19:00.393Z,45.83
2023-02-11T21:21:27.736Z,43.33
2023-02-11T21:23:56.050Z,47.78
2023-02-11T21:26:23.110Z,43.90
2023-02-11T21:28:51.840Z,43.15
2023-02-11T21:31:25.971Z,45.70
2023-02-11T21:33:57.119Z,42.78
2023-02-11T21:36:24.159Z,46.83
2023-02-11T21:38:51.727Z,45.50
2023-02-11T21:41:21.787Z,45.83
2023-02-11T21:43:49.746Z,45.25
2023-02-11T21:46:18.443Z,42.42
2023-02-11T21:48:45.603Z,42.63
2023-02-11T21:51:15.420Z,41.45
2023-02-11T21:53:42.441Z,45.10
2023-02-11T21:56:15.220Z,46.60
2023-02-11T21:58:43.117Z,42.63
2023-02-11T22:01:22.965Z,48.17
2023-02-11T22:03:50.351Z,47.58
2023-02-11T22:06:21.384Z,49.53
2023-02-11T22:08:54.742Z,45.08
2023-02-11T22:11:22.156Z,47.30
2023-02-11T22:13:54.015Z,43.50
2023-02-11T22:16:22.264Z,42.55
2023-02-11T22:18:49.540Z,45.63
2023-02-11T22:21:19.120Z,44.60
2023-02-11T22:23:46.888Z,44.63
2023-02-11T22:26:17.350Z,45.28
2023-02-11T22:28:45.048Z,43.72
2023-02-11T22:31:18.208Z,44.40
2023-02-11T22:33:46.023Z,44.65
2023-02-11T22:36:20.754Z,41.92
2023-02-11T22:38:48.802Z,42.42
2023-02-11T22:41:16.492Z,42.90
2023-02-11T22:43:44.532Z,44.55
2023-02-11T22:46:14.474Z,41.72
2023-02-11T22:48:41.986Z,46.47
2023-02-11T22:51:12.075Z,44.45
2023-02-11T22:53:39.890Z,47.25
2023-02-11T22:56:14.813Z,45.60
2023-02-11T22:58:43.191Z,44.97
2023-02-11T23:01:11.195Z,43.88
2023-02-11T23:03:39.271Z,44.28
2023-02-11T23:06:06.661Z,42.03
2023-02-11T23:08:34.402Z,41.05
2023-02-11T23:11:10.898Z,44.63
2023-02-11T23:13:40.225Z,42.85
2023-02-11T23:16:10.740Z,41.85
2023-02-11T23:18:39.779Z,41.88
2023-02-11T23:21:27.879Z,42.50
2023-02-11T23:24:21.662Z,45.72
2023-02-11T23:26:48.829Z,39.58
2023-02-11T23:29:15.819Z,43.70
2023-02-11T23:31:46.365Z,42.05
2023-02-11T23:34:25.408Z,44.83
2023-02-11T23:36:53.004Z,43.95
2023-02-11T23:39:20.431Z,42.90
2023-02-11T23:41:47.428Z,45.63
2023-02-11T23:44:14.721Z,40.40
2023-02-11T23:46:41.747Z,43.70
2023-02-11T23:49:08.894Z,45.97
2023-02-11T23:51:35.915Z,45.28
2023-02-11T23:54:03.182Z,42.10
2023-02-11T23:56:30.486Z,44.08
2023-02-11T23:58:58.659Z,43.20
